Aeroporto :
LOGIN :

Iscrizione | Disclaimer

   EN    FR    IT 

 










Sommario :    VFR   VFR Marginale   IFR   IFR Intensivo   IFR Molto Intensivo
Visibilità : 
Base nubi : 
>= 8 km
>= 3000ft
5 / 8 km
1000 / 3000 ft
1500m / 5 km
500 / 1000 ft
800 / 1500m
200 / 500 ft
< 800m
< 200 ft
Simboli :   Temporali  Nebbia  Neve Forte  Precipitazioni Forti  Vento > 20 kt
SIGMETs :   Varie  Temporali  Ghiacco  Turbolenza  Onda orograficha  Ceneri Vulcaniche






- Altitudine del aeroporto : 13 ft
- Codice IATA : CEQ


LFMD - Cannes Mandelieu

ULTIMO METAR :
  • 131700Z AUTO VRB02KT CAVOK 09/05 Q1003 NOSIG

METARs OBSOLETI :
  • 131630Z AUTO VRB02KT CAVOK 10/06 Q1002 NOSIG
  • 131600Z AUTO VRB02KT CAVOK 12/06 Q1002 NOSIG
  • 131530Z AUTO 00000KT CAVOK 13/05 Q1001 BECMG 34010KT
  • 131500Z AUTO 00000KT CAVOK 13/05 Q1001 BECMG 34010KT
  • 131430Z AUTO 00000KT CAVOK 15/05 Q1001 BECMG 34010KT

TAF TAF LFMD
Valido dal 13 a 15 ore il 14 a 15 ore UTC


131400Z 1315/1415 VRB02KT CAVOK
TEMPO 1315/1316 22010KT
BECMG 1316/1318 34010KT
BECMG 1411/1413 16015KT 9999 -RA OVC080
ATIS : +33 4 93 48 73 23



MetMap, La meteo Aeronautica in un colpo d'occhio ! - Copyright ORBIFLY Dicembre 2007 - Disclaimer

ORBIFLY MET'MAP TEAM :

Programmazione e sviluppo : Alexandra Zaïnal
Concezione e sviluppo : Baudouin d'Aumeries
Co-Programmazione e sviluppo : Marc-Olivier Méhu
Supporto tecnico e logistico : Manuel Goepfert
Aiuto per la traduzione : Arnaldo La Scala

Contatto : metmap@orbifly.com




FONTI E CREDITI :

   NOAA